createdAt,value
2023-04-28T00:00:03.297Z,0.3
2023-04-28T00:01:03.758Z,0.7
2023-04-28T00:02:03.552Z,0.2
2023-04-28T00:03:03.497Z,0.7
2023-04-28T00:04:03.478Z,0.2
2023-04-28T00:05:03.244Z,0.0
2023-04-28T00:06:03.683Z,0.2
2023-04-28T00:07:03.528Z,0.6
2023-04-28T00:08:03.565Z,0.9
2023-04-28T00:09:03.249Z,0.7
2023-04-28T00:10:03.265Z,0.4
2023-04-28T00:11:08.109Z,0.7
2023-04-28T00:12:03.791Z,0.6
2023-04-28T00:13:03.429Z,0.6
2023-04-28T00:14:03.702Z,0.2
2023-04-28T00:15:03.270Z,0.5
2023-04-28T00:16:03.900Z,0.9
2023-04-28T00:17:03.561Z,0.6
2023-04-28T00:18:03.411Z,0.7
2023-04-28T00:19:03.173Z,1.3
2023-04-28T00:20:03.239Z,0.7
2023-04-28T00:21:03.741Z,0.3
2023-04-28T00:22:03.609Z,0.4
2023-04-28T00:23:03.446Z,0.2
2023-04-28T00:24:03.314Z,0.8
2023-04-28T00:25:03.276Z,0.3
2023-04-28T00:26:03.725Z,0.8
2023-04-28T00:27:03.476Z,0.1
2023-04-28T00:28:03.311Z,0.6
2023-04-28T00:29:03.160Z,0.8
2023-04-28T00:30:03.308Z,0.3
2023-04-28T00:31:08.573Z,0.2
2023-04-28T00:32:03.587Z,0.3
2023-04-28T00:33:03.431Z,0.5
2023-04-28T00:34:03.139Z,0.6
2023-04-28T00:35:03.168Z,0.6
2023-04-28T00:36:03.874Z,0.6
2023-04-28T00:37:03.484Z,0.2
2023-04-28T00:38:03.264Z,0.9
2023-04-28T00:39:03.126Z,0.2
2023-04-28T00:40:03.201Z,0.3
2023-04-28T00:41:03.828Z,0.6
2023-04-28T00:42:03.484Z,0.4
2023-04-28T00:43:03.925Z,0.4
2023-04-28T00:44:03.344Z,1.6
2023-04-28T00:45:03.116Z,0.1
2023-04-28T00:46:03.783Z,0.0
2023-04-28T00:47:03.446Z,0.7
2023-04-28T00:48:03.306Z,0.1
2023-04-28T00:49:03.567Z,0.1
2023-04-28T00:50:04.242Z,0.2
2023-04-28T00:51:03.715Z,1.1
2023-04-28T00:52:04.150Z,0.7
2023-04-28T00:53:03.393Z,0.4
2023-04-28T00:54:03.170Z,0.5
2023-04-28T00:55:03.367Z,0.8
2023-04-28T00:56:03.847Z,0.6
2023-04-28T00:57:03.396Z,0.6
2023-04-28T00:58:03.985Z,0.7
2023-04-28T00:59:03.051Z,1.1
2023-04-28T01:00:04.056Z,0.9
2023-04-28T01:01:04.377Z,0.1
2023-04-28T01:02:04.670Z,0.6
2023-04-28T01:03:03.610Z,0.1
2023-04-28T01:04:03.381Z,0.2
2023-04-28T01:05:03.935Z,0.4
2023-04-28T01:06:04.233Z,0.4
2023-04-28T01:07:03.585Z,0.5
2023-04-28T01:08:03.270Z,0.6
2023-04-28T01:09:03.061Z,1.0
2023-04-28T01:10:03.959Z,0.8
2023-04-28T01:11:03.616Z,0.7
2023-04-28T01:12:03.661Z,0.3
2023-04-28T01:13:03.186Z,0.6
2023-04-28T01:14:03.051Z,0.6
2023-04-28T01:15:04.013Z,0.5
2023-04-28T01:16:03.925Z,0.3
2023-04-28T01:17:03.407Z,0.7
2023-04-28T01:18:03.224Z,1.0
2023-04-28T01:19:05.693Z,0.9
2023-04-28T01:20:04.105Z,0.6
2023-04-28T01:21:03.576Z,0.8
2023-04-28T01:22:03.417Z,0.6
2023-04-28T01:23:03.260Z,0.6
2023-04-28T01:24:05.200Z,0.1
2023-04-28T01:25:03.885Z,0.8
2023-04-28T01:26:03.534Z,0.9
2023-04-28T01:27:03.332Z,0.8
2023-04-28T01:28:03.314Z,0.3
2023-04-28T01:29:02.949Z,0.8
2023-04-28T01:30:04.150Z,0.6
2023-04-28T01:31:03.546Z,0.4
2023-04-28T01:32:03.484Z,0.6
2023-04-28T01:33:03.458Z,0.7
2023-04-28T01:34:03.002Z,0.8
2023-04-28T01:35:03.881Z,0.3
2023-04-28T01:36:03.698Z,0.8
2023-04-28T01:37:03.304Z,0.3
2023-04-28T01:38:03.155Z,0.4
2023-04-28T01:39:03.117Z,0.2
2023-04-28T01:40:04.119Z,0.4
2023-04-28T01:41:03.571Z,0.0
2023-04-28T01:42:03.467Z,1.3
2023-04-28T01:43:03.143Z,0.3
2023-04-28T01:44:03.222Z,0.1
2023-04-28T01:45:03.908Z,0.4
2023-04-28T01:46:03.575Z,0.6
2023-04-28T01:47:03.386Z,0.9
2023-04-28T01:48:03.235Z,0.3
2023-04-28T01:49:02.961Z,0.9
2023-04-28T01:50:04.026Z,0.5
2023-04-28T01:51:03.544Z,0.1
2023-04-28T01:52:03.494Z,0.3
2023-04-28T01:53:03.190Z,0.9
2023-04-28T01:54:03.142Z,0.2
2023-04-28T01:55:04.016Z,0.2
2023-04-28T01:56:03.585Z,0.8
2023-04-28T01:57:03.293Z,0.2
2023-04-28T01:58:03.067Z,0.4
2023-04-28T01:59:03.926Z,1.2
2023-04-28T02:00:04.003Z,1.2
2023-04-28T02:01:03.593Z,0.7
2023-04-28T02:02:03.386Z,0.5
2023-04-28T02:03:03.162Z,0.3
2023-04-28T02:04:03.072Z,0.0
2023-04-28T02:05:03.787Z,1.4
2023-04-28T02:06:03.467Z,0.8
2023-04-28T02:07:03.237Z,0.7
2023-04-28T02:08:03.147Z,0.5
2023-04-28T02:09:03.823Z,0.3
2023-04-28T02:10:03.940Z,0.6
2023-04-28T02:11:03.473Z,1.1
2023-04-28T02:12:03.408Z,0.8
2023-04-28T02:13:03.164Z,0.5
2023-04-28T02:14:02.922Z,0.2
2023-04-28T02:15:03.893Z,0.7
2023-04-28T02:16:03.569Z,0.8
2023-04-28T02:17:03.219Z,2.0
2023-04-28T02:18:03.272Z,0.2
2023-04-28T02:19:03.751Z,0.6
2023-04-28T02:20:03.989Z,0.1
2023-04-28T02:21:09.658Z,0.4
2023-04-28T02:22:03.244Z,0.3
2023-04-28T02:23:03.085Z,0.8
2023-04-28T02:24:04.043Z,0.2
2023-04-28T02:25:03.900Z,0.6
2023-04-28T02:26:03.463Z,0.2
2023-04-28T02:27:03.909Z,0.4
2023-04-28T02:28:03.062Z,0.4
2023-04-28T02:29:03.767Z,0.1
2023-04-28T02:30:04.375Z,0.5
2023-04-28T02:31:06.983Z,0.7
2023-04-28T02:32:03.218Z,0.6
2023-04-28T02:33:03.093Z,0.3
2023-04-28T02:34:03.729Z,0.8
2023-04-28T02:35:03.717Z,0.5
2023-04-28T02:36:04.335Z,0.6
2023-04-28T02:37:03.176Z,0.6
2023-04-28T02:38:02.989Z,0.8
2023-04-28T02:39:03.709Z,0.7
2023-04-28T02:40:03.888Z,0.8
2023-04-28T02:41:04.628Z,0.5
2023-04-28T02:42:03.311Z,0.4
2023-04-28T02:43:03.065Z,1.0
2023-04-28T02:44:03.795Z,0.2
2023-04-28T02:45:04.046Z,0.5
2023-04-28T02:46:03.557Z,0.1
2023-04-28T02:47:03.428Z,0.3
2023-04-28T02:48:03.200Z,0.1
2023-04-28T02:49:03.740Z,0.1
2023-04-28T02:50:03.767Z,0.3
2023-04-28T02:51:03.498Z,1.2
2023-04-28T02:52:03.345Z,0.6
2023-04-28T02:53:03.016Z,0.5
2023-04-28T02:54:03.705Z,0.2
2023-04-28T02:55:03.751Z,0.6
2023-04-28T02:56:03.502Z,0.3
2023-04-28T02:57:03.247Z,0.3
2023-04-28T02:58:03.006Z,0.3
2023-04-28T02:59:03.719Z,1.1
2023-04-28T03:00:03.960Z,0.7
2023-04-28T03:01:03.452Z,0.2
2023-04-28T03:02:03.259Z,0.5
2023-04-28T03:03:03.257Z,1.4
2023-04-28T03:04:04.243Z,0.2
2023-04-28T03:05:03.680Z,0.1
2023-04-28T03:06:03.540Z,0.7
2023-04-28T03:07:03.177Z,0.5
2023-04-28T03:08:03.028Z,0.5
2023-04-28T03:09:03.674Z,0.7
2023-04-28T03:10:03.747Z,0.8
2023-04-28T03:11:03.379Z,0.3
2023-04-28T03:12:03.196Z,0.6
2023-04-28T03:13:03.022Z,0.5
2023-04-28T03:14:03.642Z,0.5
2023-04-28T03:15:03.621Z,0.1
2023-04-28T03:16:03.615Z,0.6
2023-04-28T03:17:03.129Z,0.6
2023-04-28T03:18:03.119Z,0.6
2023-04-28T03:19:03.810Z,0.4
2023-04-28T03:20:04.171Z,0.6
2023-04-28T03:21:03.441Z,1.0
2023-04-28T03:22:03.192Z,0.1
2023-04-28T03:23:03.026Z,0.6
2023-04-28T03:24:05.583Z,0.9
2023-04-28T03:25:03.723Z,1.1
2023-04-28T03:26:03.294Z,0.2
2023-04-28T03:27:03.152Z,0.7
2023-04-28T03:28:03.077Z,0.6
2023-04-28T03:29:03.746Z,0.7
2023-04-28T03:30:03.924Z,0.6
2023-04-28T03:31:03.411Z,0.2
2023-04-28T03:32:03.302Z,0.5
2023-04-28T03:33:03.095Z,0.0
2023-04-28T03:34:03.714Z,0.0
2023-04-28T03:35:07.990Z,0.9
2023-04-28T03:36:03.444Z,0.5
2023-04-28T03:37:03.212Z,0.3
2023-04-28T03:38:02.969Z,0.8
2023-04-28T03:39:03.768Z,0.6
2023-04-28T03:40:03.971Z,0.1
2023-04-28T03:41:03.436Z,0.2
2023-04-28T03:42:03.363Z,0.1
2023-04-28T03:43:04.792Z,0.5
2023-04-28T03:44:03.816Z,0.2
2023-04-28T03:45:03.801Z,0.8
2023-04-28T03:46:03.675Z,0.0
2023-04-28T03:47:03.246Z,0.3
2023-04-28T03:48:03.147Z,0.1
2023-04-28T03:49:03.699Z,0.6
2023-04-28T03:50:03.783Z,0.8
2023-04-28T03:51:03.539Z,0.7
2023-04-28T03:52:03.242Z,0.5
2023-04-28T03:53:03.029Z,0.5
2023-04-28T03:54:03.836Z,0.6
2023-04-28T03:55:03.800Z,0.5
2023-04-28T03:56:03.529Z,0.5
2023-04-28T03:57:03.185Z,0.2
2023-04-28T03:58:03.047Z,0.3
2023-04-28T03:59:03.788Z,0.6
2023-04-28T04:00:04.010Z,0.1
2023-04-28T04:01:03.374Z,0.4
2023-04-28T04:02:03.245Z,0.4
2023-04-28T04:03:03.290Z,0.2
2023-04-28T04:04:04.399Z,0.8
2023-04-28T04:05:03.949Z,0.2
2023-04-28T04:06:03.589Z,0.9
2023-04-28T04:07:03.190Z,0.5
2023-04-28T04:08:03.196Z,0.3
2023-04-28T04:09:03.872Z,0.3
2023-04-28T04:10:04.778Z,0.2
2023-04-28T04:11:03.435Z,0.9
2023-04-28T04:12:03.470Z,0.4
2023-04-28T04:13:03.045Z,0.8
2023-04-28T04:14:03.744Z,1.0
2023-04-28T04:15:04.017Z,0.4
2023-04-28T04:16:03.624Z,0.1
2023-04-28T04:17:03.215Z,0.1
2023-04-28T04:18:03.158Z,0.3
2023-04-28T04:19:03.748Z,1.2
2023-04-28T04:20:03.962Z,0.6
2023-04-28T04:21:03.526Z,0.2
2023-04-28T04:22:03.186Z,0.4
2023-04-28T04:23:03.006Z,0.2
2023-04-28T04:24:03.822Z,0.1
2023-04-28T04:25:03.834Z,0.2
2023-04-28T04:26:03.369Z,0.5
2023-04-28T04:27:03.142Z,0.5
2023-04-28T04:28:03.156Z,0.2
2023-04-28T04:29:03.767Z,0.3
2023-04-28T04:30:03.993Z,0.3
2023-04-28T04:31:03.459Z,0.3
2023-04-28T04:32:03.301Z,0.3
2023-04-28T04:33:03.061Z,0.4
2023-04-28T04:34:03.747Z,0.3
2023-04-28T04:35:03.764Z,0.8
2023-04-28T04:36:03.710Z,0.3
2023-04-28T04:37:03.097Z,0.3
2023-04-28T04:38:03.008Z,0.5
2023-04-28T04:39:03.657Z,1.0
2023-04-28T04:40:03.918Z,0.5
2023-04-28T04:41:03.358Z,0.4
2023-04-28T04:42:13.355Z,0.3
2023-04-28T04:43:02.928Z,0.2
2023-04-28T04:44:03.688Z,0.9
2023-04-28T04:45:03.778Z,0.1
2023-04-28T04:46:03.478Z,0.4
2023-04-28T04:47:03.148Z,0.1
2023-04-28T04:48:04.064Z,0.2
2023-04-28T04:49:03.718Z,0.7
2023-04-28T04:50:03.676Z,0.8
2023-04-28T04:51:03.525Z,0.5
2023-04-28T04:52:03.184Z,0.4
2023-04-28T04:53:02.956Z,0.5
2023-04-28T04:54:03.836Z,0.5
2023-04-28T04:55:03.701Z,0.7
2023-04-28T04:56:03.437Z,0.7
2023-04-28T04:57:03.238Z,0.2
2023-04-28T04:58:03.890Z,1.0
2023-04-28T04:59:03.619Z,1.6
2023-04-28T05:00:03.820Z,0.5
2023-04-28T05:01:03.363Z,0.5
2023-04-28T05:02:03.098Z,0.5
2023-04-28T05:03:04.406Z,0.3
2023-04-28T05:04:03.851Z,1.2
2023-04-28T05:05:16.556Z,1.1
2023-04-28T05:06:03.342Z,0.2
2023-04-28T05:07:03.061Z,0.4
2023-04-28T05:08:03.819Z,0.5
2023-04-28T05:09:03.606Z,0.9
2023-04-28T05:10:03.620Z,0.9
2023-04-28T05:11:03.286Z,0.6
2023-04-28T05:12:03.169Z,0.9
2023-04-28T05:13:03.822Z,0.9
2023-04-28T05:14:03.539Z,0.5
2023-04-28T05:15:04.176Z,0.1
2023-04-28T05:16:03.492Z,0.3
2023-04-28T05:17:02.987Z,0.3
2023-04-28T05:18:03.766Z,0.2
2023-04-28T05:19:03.757Z,0.7
2023-04-28T05:20:03.573Z,1.0
2023-04-28T05:21:03.330Z,0.4
2023-04-28T05:22:03.063Z,0.9
2023-04-28T05:23:03.741Z,0.6
2023-04-28T05:24:03.765Z,0.6
2023-04-28T05:25:03.603Z,0.4
2023-04-28T05:26:03.409Z,1.3
2023-04-28T05:27:03.067Z,0.4
2023-04-28T05:28:03.824Z,0.6
2023-04-28T05:29:03.587Z,0.5
2023-04-28T05:30:03.703Z,0.8
2023-04-28T05:31:03.289Z,1.2
2023-04-28T05:32:03.276Z,1.6
2023-04-28T05:33:03.782Z,0.6
2023-04-28T05:34:03.483Z,0.2
2023-04-28T05:35:03.484Z,0.9
2023-04-28T05:36:03.344Z,1.0
2023-04-28T05:37:03.038Z,1.4
2023-04-28T05:38:03.715Z,0.3
2023-04-28T05:39:03.499Z,0.5
2023-04-28T05:40:03.750Z,0.9
2023-04-28T05:41:03.250Z,1.1
2023-04-28T05:42:03.176Z,0.3
2023-04-28T05:43:03.706Z,0.7
2023-04-28T05:44:03.581Z,0.2
2023-04-28T05:45:03.602Z,0.8
2023-04-28T05:46:04.050Z,0.4
2023-04-28T05:47:02.997Z,0.6
2023-04-28T05:48:03.853Z,0.2
2023-04-28T05:49:03.482Z,0.2
2023-04-28T05:50:03.484Z,0.3
2023-04-28T05:51:03.110Z,0.3
2023-04-28T05:52:03.058Z,0.7
2023-04-28T05:53:03.604Z,0.8
2023-04-28T05:54:03.548Z,0.7
2023-04-28T05:55:03.455Z,0.4
2023-04-28T05:56:03.119Z,0.4
2023-04-28T05:57:04.117Z,0.1
2023-04-28T05:58:03.655Z,0.8
2023-04-28T05:59:03.530Z,1.0
2023-04-28T06:00:03.544Z,0.8
2023-04-28T06:01:03.129Z,1.0
2023-04-28T06:02:03.819Z,1.5
2023-04-28T06:03:03.708Z,0.6
2023-04-28T06:04:03.737Z,0.6
2023-04-28T06:05:03.722Z,0.5
2023-04-28T06:06:05.218Z,0.5
2023-04-28T06:07:03.774Z,0.3
2023-04-28T06:08:03.728Z,0.6
2023-04-28T06:09:03.399Z,0.5
2023-04-28T06:10:03.417Z,0.5
2023-04-28T06:11:03.155Z,0.2
2023-04-28T06:12:03.915Z,0.4
2023-04-28T06:13:03.484Z,0.6
2023-04-28T06:14:03.480Z,0.4
2023-04-28T06:15:04.045Z,0.4
2023-04-28T06:16:03.238Z,0.1
2023-04-28T06:17:03.738Z,0.5
2023-04-28T06:18:03.638Z,1.2
2023-04-28T06:19:03.742Z,2.0
2023-04-28T06:20:03.459Z,4.5
2023-04-28T06:21:03.015Z,7.1
2023-04-28T06:22:03.643Z,6.3
2023-04-28T06:23:03.487Z,6.4
2023-04-28T06:24:03.396Z,4.8
2023-04-28T06:25:03.372Z,3.2
2023-04-28T06:26:03.094Z,3.2
2023-04-28T06:27:03.726Z,1.5
2023-04-28T06:28:03.530Z,2.0
2023-04-28T06:29:03.267Z,1.5
2023-04-28T06:30:03.358Z,1.7
2023-04-28T06:31:02.984Z,1.6
2023-04-28T06:32:03.851Z,1.7
2023-04-28T06:33:03.436Z,2.2
2023-04-28T06:34:03.214Z,1.1
2023-04-28T06:35:03.280Z,2.5
2023-04-28T06:36:03.998Z,1.9
2023-04-28T06:37:03.733Z,1.7
2023-04-28T06:38:03.545Z,0.9
2023-04-28T06:39:03.444Z,1.1
2023-04-28T06:40:03.312Z,1.9
2023-04-28T06:41:03.708Z,1.4
2023-04-28T06:42:03.515Z,1.5
2023-04-28T06:43:03.304Z,2.1
2023-04-28T06:44:03.247Z,1.1
2023-04-28T06:45:03.100Z,1.1
2023-04-28T06:46:03.663Z,0.7
2023-04-28T06:47:03.609Z,1.9
2023-04-28T06:48:03.682Z,1.9
2023-04-28T06:49:03.180Z,0.6
2023-04-28T06:50:03.036Z,1.1
2023-04-28T06:51:03.889Z,1.6
2023-04-28T06:52:03.465Z,1.4
2023-04-28T06:53:03.262Z,1.4
2023-04-28T06:54:03.089Z,3.0
2023-04-28T06:55:04.781Z,1.1
2023-04-28T06:56:03.891Z,2.1
2023-04-28T06:57:03.770Z,2.1
2023-04-28T06:58:03.260Z,1.4
2023-04-28T06:59:03.074Z,0.9
2023-04-28T07:00:04.249Z,1.1
2023-04-28T07:01:03.733Z,0.8
2023-04-28T07:02:03.435Z,1.5
2023-04-28T07:03:03.616Z,1.1
2023-04-28T07:04:03.260Z,1.8
2023-04-28T07:05:03.879Z,1.8
2023-04-28T07:06:03.842Z,1.8
2023-04-28T07:07:03.355Z,0.8
2023-04-28T07:08:03.261Z,1.2
2023-04-28T07:09:03.100Z,1.6
2023-04-28T07:10:03.925Z,1.8
2023-04-28T07:11:03.525Z,1.4
2023-04-28T07:12:03.463Z,1.1
2023-04-28T07:13:03.111Z,1.4
2023-04-28T07:14:03.862Z,1.4
2023-04-28T07:15:04.015Z,1.6
2023-04-28T07:16:03.668Z,1.3
2023-04-28T07:17:03.338Z,0.8
2023-04-28T07:18:03.231Z,1.6
2023-04-28T07:19:03.730Z,0.6
2023-04-28T07:20:04.185Z,1.4
2023-04-28T07:21:05.378Z,1.9
2023-04-28T07:22:03.291Z,1.1
2023-04-28T07:23:03.024Z,1.3
2023-04-28T07:24:04.027Z,1.5
2023-04-28T07:25:03.916Z,1.5
2023-04-28T07:26:03.623Z,1.5
2023-04-28T07:27:03.226Z,1.0
2023-04-28T07:28:03.170Z,1.2
2023-04-28T07:29:03.871Z,0.9
2023-04-28T07:30:14.715Z,1.5
2023-04-28T07:31:03.351Z,0.9
2023-04-28T07:32:04.688Z,1.6
2023-04-28T07:33:03.011Z,1.6
2023-04-28T07:34:03.637Z,1.2
2023-04-28T07:35:03.705Z,1.6
2023-04-28T07:36:03.528Z,1.7
2023-04-28T07:37:03.270Z,1.4
2023-04-28T07:38:03.145Z,2.4
2023-04-28T07:39:03.608Z,1.9
2023-04-28T07:40:03.798Z,1.7
2023-04-28T07:41:03.430Z,0.8
2023-04-28T07:42:03.287Z,0.8
2023-04-28T07:43:03.808Z,2.3
2023-04-28T07:44:06.626Z,1.4
2023-04-28T07:45:03.950Z,0.6
2023-04-28T07:46:03.318Z,1.4
2023-04-28T07:47:02.975Z,1.1
2023-04-28T07:48:03.864Z,1.1
2023-04-28T07:49:03.476Z,1.7
2023-04-28T07:50:03.537Z,1.2
2023-04-28T07:51:03.246Z,2.1
2023-04-28T07:52:03.067Z,1.4
2023-04-28T07:53:03.693Z,1.6
2023-04-28T07:54:03.488Z,0.8
2023-04-28T07:55:03.446Z,2.8
2023-04-28T07:56:03.266Z,1.0
2023-04-28T07:57:03.033Z,1.4
2023-04-28T07:58:03.624Z,0.8
2023-04-28T07:59:03.424Z,0.7
2023-04-28T08:00:03.730Z,1.8
2023-04-28T08:01:03.075Z,1.0
2023-04-28T08:02:03.823Z,1.4
2023-04-28T08:03:03.812Z,0.7
2023-04-28T08:04:03.603Z,1.9
2023-04-28T08:05:03.516Z,0.9
2023-04-28T08:06:03.158Z,1.3
2023-04-28T08:07:03.711Z,0.7
2023-04-28T08:08:03.636Z,0.4
2023-04-28T08:09:03.341Z,1.2
2023-04-28T08:10:03.752Z,0.5
2023-04-28T08:11:03.065Z,0.6
2023-04-28T08:12:03.908Z,1.6
2023-04-28T08:13:03.562Z,0.9
2023-04-28T08:14:03.588Z,1.0
2023-04-28T08:15:03.507Z,1.4
2023-04-28T08:16:03.407Z,1.0
2023-04-28T08:17:03.685Z,1.7
2023-04-28T08:18:03.528Z,1.2
2023-04-28T08:19:03.317Z,0.6
2023-04-28T08:20:03.331Z,1.4
2023-04-28T08:21:03.869Z,1.7
2023-04-28T08:22:03.738Z,1.6
2023-04-28T08:23:03.481Z,1.8
2023-04-28T08:24:03.313Z,0.8
2023-04-28T08:25:03.337Z,1.8
2023-04-28T08:26:03.889Z,0.8
2023-04-28T08:27:03.624Z,1.4
2023-04-28T08:28:03.460Z,1.3
2023-04-28T08:29:03.388Z,1.6
2023-04-28T08:30:03.329Z,0.9
2023-04-28T08:31:03.878Z,0.9
2023-04-28T08:32:03.751Z,2.1
2023-04-28T08:33:03.590Z,1.2
2023-04-28T08:34:03.159Z,1.2
2023-04-28T08:35:03.194Z,1.2
2023-04-28T08:36:03.995Z,0.7
2023-04-28T08:37:03.571Z,2.0
2023-04-28T08:38:03.286Z,1.4
2023-04-28T08:39:03.146Z,0.4
2023-04-28T08:40:03.203Z,2.9
2023-04-28T08:41:04.011Z,1.7
2023-04-28T08:42:03.915Z,2.5
2023-04-28T08:43:03.262Z,1.2
2023-04-28T08:44:06.119Z,0.7
2023-04-28T08:45:03.907Z,0.6
2023-04-28T08:46:06.694Z,2.2
2023-04-28T08:47:04.077Z,0.6
2023-04-28T08:48:04.022Z,1.0
2023-04-28T08:49:03.515Z,1.7
2023-04-28T08:50:04.518Z,2.1
2023-04-28T08:51:04.528Z,1.9
2023-04-28T08:52:06.061Z,0.8
2023-04-28T08:53:03.480Z,1.1
2023-04-28T08:54:24.797Z,1.6
2023-04-28T08:55:07.357Z,1.5
2023-04-28T08:56:04.639Z,1.8
2023-04-28T08:57:03.331Z,1.6
2023-04-28T08:58:03.959Z,3.0
2023-04-28T08:59:03.608Z,1.6
2023-04-28T09:00:04.285Z,1.6
2023-04-28T09:01:03.510Z,1.4
2023-04-28T09:02:03.682Z,1.2
2023-04-28T09:03:03.561Z,2.1
2023-04-28T09:04:03.365Z,0.9
2023-04-28T09:05:06.638Z,1.2
2023-04-28T09:06:03.673Z,1.3
2023-04-28T09:07:03.230Z,1.1
2023-04-28T09:08:03.205Z,1.5
2023-04-28T09:09:23.288Z,1.3
2023-04-28T09:10:19.554Z,2.0
2023-04-28T09:11:09.888Z,1.8
2023-04-28T09:12:03.463Z,0.8
2023-04-28T09:13:03.032Z,2.0
2023-04-28T09:14:12.448Z,1.8
2023-04-28T09:15:03.655Z,2.3
2023-04-28T09:16:03.587Z,1.0
2023-04-28T09:17:07.985Z,1.1
2023-04-28T09:18:03.927Z,1.6
2023-04-28T09:19:03.692Z,2.1
2023-04-28T09:20:08.489Z,1.3
2023-04-28T09:21:04.098Z,0.8
2023-04-28T09:22:13.672Z,1.0
2023-04-28T09:23:13.106Z,1.5
2023-04-28T09:24:03.758Z,1.0
2023-04-28T09:25:08.410Z,1.7
2023-04-28T09:26:04.054Z,0.8
2023-04-28T09:27:03.801Z,2.1
2023-04-28T09:28:19.368Z,0.7
2023-04-28T09:29:12.426Z,2.0
2023-04-28T09:30:07.887Z,1.5
2023-04-28T09:31:03.327Z,1.1
2023-04-28T09:32:12.662Z,2.0
2023-04-28T09:33:04.158Z,0.4
2023-04-28T09:34:03.485Z,0.7
2023-04-28T09:35:03.730Z,1.9
2023-04-28T09:36:05.349Z,1.4
2023-04-28T09:37:07.913Z,1.3
2023-04-28T09:38:03.752Z,0.8
2023-04-28T09:39:03.541Z,1.9
2023-04-28T09:40:05.502Z,1.5
2023-04-28T09:41:03.261Z,1.3
2023-04-28T09:42:03.084Z,1.8
2023-04-28T09:43:15.128Z,0.8
2023-04-28T09:44:17.103Z,1.7
2023-04-28T09:45:08.275Z,1.1
2023-04-28T09:46:03.906Z,1.2
2023-04-28T09:47:14.865Z,1.2
2023-04-28T09:48:09.704Z,2.1
2023-04-28T09:49:03.481Z,1.6
2023-04-28T09:50:04.285Z,0.9
2023-04-28T09:51:04.282Z,1.9
2023-04-28T09:52:13.032Z,1.0
2023-04-28T09:53:03.705Z,1.3
2023-04-28T09:54:03.384Z,1.1
2023-04-28T09:55:04.396Z,1.2
2023-04-28T09:56:03.738Z,1.8
2023-04-28T09:57:04.119Z,1.8
2023-04-28T09:58:05.409Z,1.5
2023-04-28T09:59:03.589Z,1.5
2023-04-28T10:00:03.889Z,2.1
2023-04-28T10:01:05.745Z,1.0
2023-04-28T10:02:15.444Z,2.0
2023-04-28T10:03:04.082Z,1.7
2023-04-28T10:04:03.856Z,2.5
2023-04-28T10:05:04.502Z,2.1
2023-04-28T10:06:03.361Z,1.0
2023-04-28T10:07:03.686Z,1.7
2023-04-28T10:08:03.704Z,1.3
2023-04-28T10:09:04.323Z,2.6
2023-04-28T10:10:03.504Z,1.7
2023-04-28T10:11:03.061Z,1.6
2023-04-28T10:12:04.228Z,1.6
2023-04-28T10:13:03.500Z,1.7
2023-04-28T10:14:03.453Z,2.1
2023-04-28T10:15:03.474Z,1.9
2023-04-28T10:16:03.269Z,1.1
2023-04-28T10:17:03.723Z,1.7
2023-04-28T10:18:04.568Z,1.4
2023-04-28T10:19:03.885Z,1.6
2023-04-28T10:20:03.866Z,1.6
2023-04-28T10:21:03.961Z,1.1
2023-04-28T10:22:08.530Z,0.8
2023-04-28T10:23:21.251Z,0.8
2023-04-28T10:24:10.887Z,1.2
2023-04-28T10:25:16.824Z,0.9
2023-04-28T10:26:08.630Z,1.2
2023-04-28T10:27:07.452Z,1.1
2023-04-28T10:28:07.569Z,2.4
2023-04-28T10:29:03.309Z,1.9
2023-04-28T10:30:22.927Z,1.0
2023-04-28T10:31:10.650Z,1.2
2023-04-28T10:32:16.362Z,1.1
2023-04-28T10:33:19.865Z,1.5
2023-04-28T10:34:21.592Z,1.7
2023-04-28T10:35:25.903Z,1.1
2023-04-28T10:36:04.819Z,1.5
2023-04-28T10:37:03.549Z,1.3
2023-04-28T10:38:04.096Z,0.6
2023-04-28T10:39:10.163Z,1.1
2023-04-28T10:40:21.251Z,1.6
2023-04-28T10:41:03.696Z,1.1
2023-04-28T10:42:03.507Z,1.8
2023-04-28T10:43:03.561Z,1.7
2023-04-28T10:44:10.841Z,1.6
2023-04-28T10:45:03.083Z,1.5
2023-04-28T10:46:04.513Z,1.0
2023-04-28T10:47:04.353Z,1.5
2023-04-28T10:48:03.385Z,0.8
2023-04-28T10:49:03.131Z,0.9
2023-04-28T10:50:04.872Z,1.2
2023-04-28T10:51:08.520Z,1.5
2023-04-28T10:52:08.275Z,1.6
2023-04-28T10:53:03.173Z,1.6
2023-04-28T10:54:09.225Z,1.5
2023-04-28T10:55:22.482Z,1.2
2023-04-28T10:56:06.460Z,1.1
2023-04-28T10:57:15.811Z,1.5
2023-04-28T10:58:16.842Z,0.9
2023-04-28T10:59:07.922Z,1.2
2023-04-28T11:00:23.353Z,2.0
2023-04-28T11:01:23.426Z,1.2
2023-04-28T11:02:21.406Z,2.7
2023-04-28T11:03:03.276Z,1.1
2023-04-28T11:04:06.534Z,1.6
2023-04-28T11:05:09.787Z,1.4
2023-04-28T11:06:19.526Z,1.0
2023-04-28T11:07:09.466Z,1.0
2023-04-28T11:08:22.820Z,1.3
2023-04-28T11:09:07.804Z,1.9
2023-04-28T11:10:03.884Z,1.7
2023-04-28T11:11:15.617Z,1.5
2023-04-28T11:12:04.066Z,1.3
2023-04-28T11:13:21.310Z,1.1
2023-04-28T11:14:23.406Z,1.9
2023-04-28T11:15:12.866Z,1.0
2023-04-28T11:16:03.655Z,1.1
2023-04-28T11:17:04.429Z,1.0
2023-04-28T11:18:03.326Z,1.2
2023-04-28T11:19:03.779Z,1.8
2023-04-28T11:20:03.850Z,1.9
2023-04-28T11:21:03.383Z,0.9
2023-04-28T11:22:04.620Z,1.4
2023-04-28T11:23:03.307Z,1.5
2023-04-28T11:24:07.956Z,2.0
2023-04-28T11:25:03.788Z,1.5
2023-04-28T11:26:03.463Z,1.4
2023-04-28T11:27:03.887Z,1.2
2023-04-28T11:28:03.413Z,1.5
2023-04-28T11:29:03.891Z,1.7
2023-04-28T11:30:08.484Z,2.4
2023-04-28T11:31:15.819Z,1.3
2023-04-28T11:32:06.916Z,0.5
2023-04-28T11:33:03.052Z,1.7
2023-04-28T11:34:07.259Z,1.7
2023-04-28T11:35:03.788Z,1.0
2023-04-28T11:36:03.917Z,1.5
2023-04-28T11:37:03.234Z,1.2
2023-04-28T11:38:02.980Z,1.8
2023-04-28T11:39:08.162Z,1.4
2023-04-28T11:40:12.695Z,1.3
2023-04-28T11:41:03.383Z,2.1
2023-04-28T11:42:08.013Z,1.1
2023-04-28T11:43:03.901Z,0.9
2023-04-28T11:44:13.642Z,0.5
2023-04-28T11:45:03.849Z,1.5
2023-04-28T11:46:03.352Z,1.7
2023-04-28T11:47:04.123Z,1.1
2023-04-28T11:48:07.843Z,1.7
2023-04-28T11:49:04.525Z,0.8
2023-04-28T11:50:03.665Z,1.5
2023-04-28T11:51:03.710Z,1.8
2023-04-28T11:52:06.707Z,1.6
2023-04-28T11:53:03.953Z,1.6
2023-04-28T11:54:06.486Z,1.4
2023-04-28T11:55:03.753Z,1.5
2023-04-28T11:56:06.228Z,1.3
2023-04-28T11:57:03.280Z,1.4
2023-04-28T11:58:18.320Z,1.3
2023-04-28T11:59:04.889Z,0.8
2023-04-28T12:00:15.737Z,1.1
2023-04-28T12:01:12.497Z,1.4
2023-04-28T12:02:04.432Z,1.1
2023-04-28T12:03:09.685Z,1.4
2023-04-28T12:04:04.161Z,0.8
2023-04-28T12:05:06.989Z,1.9
2023-04-28T12:06:03.695Z,2.4
2023-04-28T12:07:07.804Z,2.3
2023-04-28T12:08:03.998Z,0.7
2023-04-28T12:09:08.464Z,1.1
2023-04-28T12:10:09.829Z,2.2
2023-04-28T12:11:09.739Z,1.8
2023-04-28T12:12:04.028Z,1.0
2023-04-28T12:13:15.647Z,1.0
2023-04-28T12:14:04.383Z,1.0
2023-04-28T12:15:04.332Z,1.1
2023-04-28T12:16:06.577Z,1.0
2023-04-28T12:17:03.081Z,2.1
2023-04-28T12:18:09.990Z,1.4
2023-04-28T12:19:03.491Z,1.8
2023-04-28T12:20:04.781Z,1.5
2023-04-28T12:21:03.575Z,2.4
2023-04-28T12:22:04.129Z,1.5
2023-04-28T12:23:03.873Z,1.6
2023-04-28T12:24:15.996Z,0.8
2023-04-28T12:25:06.858Z,1.9
2023-04-28T12:26:03.220Z,1.5
2023-04-28T12:27:15.681Z,1.1
2023-04-28T12:28:05.197Z,0.9
2023-04-28T12:29:03.493Z,1.4
2023-04-28T12:30:03.817Z,1.6
2023-04-28T12:31:04.008Z,1.6
2023-04-28T12:32:07.179Z,1.2
2023-04-28T12:33:03.692Z,1.3
2023-04-28T12:34:03.406Z,1.3
2023-04-28T12:35:03.945Z,2.2
2023-04-28T12:36:03.583Z,1.3
2023-04-28T12:37:03.612Z,1.1
2023-04-28T12:38:03.095Z,1.4
2023-04-28T12:39:02.960Z,1.2
2023-04-28T12:40:04.348Z,1.8
2023-04-28T12:41:03.715Z,1.4
2023-04-28T12:42:03.699Z,0.9
2023-04-28T12:43:03.062Z,1.0
2023-04-28T12:44:04.072Z,1.6
2023-04-28T12:45:05.061Z,1.5
2023-04-28T12:46:03.731Z,1.2
2023-04-28T12:47:06.830Z,1.4
2023-04-28T12:48:03.133Z,0.6
2023-04-28T12:49:03.702Z,0.7
2023-04-28T12:50:03.920Z,2.0
2023-04-28T12:51:03.319Z,1.6
2023-04-28T12:52:04.002Z,2.1
2023-04-28T12:53:04.148Z,2.1
2023-04-28T12:54:03.652Z,1.5
2023-04-28T12:55:03.904Z,1.1
2023-04-28T12:56:03.430Z,1.1
2023-04-28T12:57:06.066Z,2.6
2023-04-28T12:58:04.157Z,1.8
2023-04-28T12:59:03.667Z,1.5
2023-04-28T13:00:04.019Z,1.2
2023-04-28T13:01:03.351Z,1.0
2023-04-28T13:02:03.276Z,1.7
2023-04-28T13:03:03.962Z,1.4
2023-04-28T13:04:03.828Z,1.4
2023-04-28T13:05:03.739Z,1.3
2023-04-28T13:06:03.309Z,0.9
2023-04-28T13:07:03.063Z,2.2
2023-04-28T13:08:03.976Z,0.8
2023-04-28T13:09:03.600Z,1.8
2023-04-28T13:10:03.677Z,1.8
2023-04-28T13:11:07.336Z,0.8
2023-04-28T13:12:03.398Z,1.2
2023-04-28T13:13:03.765Z,2.3
2023-04-28T13:14:03.669Z,1.2
2023-04-28T13:15:03.753Z,1.3
2023-04-28T13:16:03.396Z,1.8
2023-04-28T13:17:03.022Z,1.7
2023-04-28T13:18:03.786Z,1.9
2023-04-28T13:19:03.630Z,1.1
2023-04-28T13:20:03.986Z,1.2
2023-04-28T13:21:03.319Z,0.6
2023-04-28T13:22:02.959Z,0.8
2023-04-28T13:23:03.701Z,1.4
2023-04-28T13:24:04.465Z,1.2
2023-04-28T13:25:03.550Z,1.1
2023-04-28T13:26:03.228Z,1.5
2023-04-28T13:27:03.064Z,1.3
2023-04-28T13:28:03.797Z,1.6
2023-04-28T13:29:03.430Z,1.6
2023-04-28T13:30:04.636Z,0.9
2023-04-28T13:31:03.128Z,1.8
2023-04-28T13:32:04.392Z,2.2
2023-04-28T13:33:03.780Z,2.3
2023-04-28T13:34:03.537Z,1.6
2023-04-28T13:35:03.598Z,1.1
2023-04-28T13:36:03.260Z,1.2
2023-04-28T13:37:03.788Z,0.9
2023-04-28T13:38:03.610Z,1.5
2023-04-28T13:39:03.370Z,1.4
2023-04-28T13:40:03.351Z,1.7
2023-04-28T13:41:03.012Z,1.5
2023-04-28T13:42:03.979Z,2.1
2023-04-28T13:43:03.550Z,2.0
2023-04-28T13:44:03.411Z,1.4
2023-04-28T13:45:03.487Z,1.6
2023-04-28T13:46:03.105Z,1.7